Rechercher aéroport 
image banner adimage banner adimage banner ad
image banner ad

6G6 - Cove Valley

Situé à Williamsburg, United States

ICAO - 6G6, IATA -

Données fournies par Airmate  

Information générale

Coordonnées: N40°27'16" W78°14'17"
Élévation : 1156 feet MSL.
Variation magnétique : -09° East
Voir autres Aéroports à Pennsylvania

Données opérationnelles

Special qualification required
Heure actuelle UTC:
Heure actuelle locale:
Météo à : KAOO - Altoona-Blair County ( 19 km )
METAR: KAOO 152253Z AUTO 30004KT 10SM SCT055 SCT070 21/13 A2988 RMK AO2 SLP113 T02060128
TAF: KAOO 152106Z 1521/1618 33008KT P6SM VCSH SCT050 BKN100 FM160000 31005KT P6SM SCT045 FM160600 VRB03KT 6SM BR SKC FM161600 33008KT P6SM SKC
Voir NOTAMs / SUP AIP / TFR affectant cet aéroport [VIEW]
Fréquences de communication: [VIEW]

Pistes:

Identifiant RWYQFULongueur (ft)Largeur (ft)SurfaceLDA (ft)
042750100GRASS
222750100GRASS

Coordonnées de l'aéroport

Adresse: Williamsburg United States

Vue satellite de 6G6